sensor_id;sensor_type;location;lat;lon;timestamp;pressure;altitude;pressure_sealevel;temperature;humidity
37610;BME280;23457;51.966;8.230;2022-09-09T00:00:21;100166.81;;;17.60;86.74
37610;BME280;23457;51.966;8.230;2022-09-09T00:03:06;100167.63;;;17.64;86.79
37610;BME280;23457;51.966;8.230;2022-09-09T00:05:41;100168.47;;;17.63;86.69
37610;BME280;23457;51.966;8.230;2022-09-09T00:08:22;100154.59;;;17.58;87.43
37610;BME280;23457;51.966;8.230;2022-09-09T00:10:58;100148.63;;;17.49;87.59
37610;BME280;23457;51.966;8.230;2022-09-09T00:13:36;100166.97;;;17.51;87.86
37610;BME280;23457;51.966;8.230;2022-09-09T00:16:19;100158.41;;;17.43;88.39
37610;BME280;23457;51.966;8.230;2022-09-09T00:21:25;100176.84;;;17.40;88.92
37610;BME280;23457;51.966;8.230;2022-09-09T00:23:57;100172.44;;;17.42;88.24
37610;BME280;23457;51.966;8.230;2022-09-09T00:31:40;100152.16;;;17.05;90.67
37610;BME280;23457;51.966;8.230;2022-09-09T00:34:15;100164.75;;;17.33;90.07
37610;BME280;23457;51.966;8.230;2022-09-09T00:36:43;100153.50;;;17.26;90.12
37610;BME280;23457;51.966;8.230;2022-09-09T00:39:26;100152.69;;;17.66;88.83
37610;BME280;23457;51.966;8.230;2022-09-09T00:42:15;100160.47;;;17.70;87.99
37610;BME280;23457;51.966;8.230;2022-09-09T00:50:38;100157.63;;;17.81;91.32
37610;BME280;23457;51.966;8.230;2022-09-09T00:58:32;100141.66;;;17.88;92.00
37610;BME280;23457;51.966;8.230;2022-09-09T01:01:05;100154.09;;;17.82;93.10
37610;BME280;23457;51.966;8.230;2022-09-09T01:03:46;100156.59;;;17.86;92.73
37610;BME280;23457;51.966;8.230;2022-09-09T01:06:32;100152.19;;;17.87;92.99
37610;BME280;23457;51.966;8.230;2022-09-09T01:12:30;100161.81;;;17.88;93.48
37610;BME280;23457;51.966;8.230;2022-09-09T01:15:12;100137.84;;;17.62;94.57
37610;BME280;23457;51.966;8.230;2022-09-09T01:17:56;100163.63;;;17.86;94.60
37610;BME280;23457;51.966;8.230;2022-09-09T01:20:36;100151.28;;;17.89;95.09
37610;BME280;23457;51.966;8.230;2022-09-09T01:23:28;100153.19;;;17.83;95.86
37610;BME280;23457;51.966;8.230;2022-09-09T01:26:15;100153.31;;;17.77;95.63
37610;BME280;23457;51.966;8.230;2022-09-09T01:28:46;100150.81;;;17.72;96.23
37610;BME280;23457;51.966;8.230;2022-09-09T01:31:18;100150.63;;;17.80;95.80
37610;BME280;23457;51.966;8.230;2022-09-09T01:33:46;100156.75;;;17.80;94.98
37610;BME280;23457;51.966;8.230;2022-09-09T01:36:19;100161.22;;;17.75;94.72
37610;BME280;23457;51.966;8.230;2022-09-09T01:38:50;100147.47;;;17.64;94.62
37610;BME280;23457;51.966;8.230;2022-09-09T01:41:17;100159.59;;;17.71;94.48
37610;BME280;23457;51.966;8.230;2022-09-09T01:43:43;100159.75;;;17.61;95.22
37610;BME280;23457;51.966;8.230;2022-09-09T01:46:11;100155.69;;;17.47;95.30
37610;BME280;23457;51.966;8.230;2022-09-09T01:48:39;100152.88;;;17.55;94.99
37610;BME280;23457;51.966;8.230;2022-09-09T01:51:08;100147.50;;;17.61;95.01
37610;BME280;23457;51.966;8.230;2022-09-09T01:53:36;100162.19;;;17.73;93.65
37610;BME280;23457;51.966;8.230;2022-09-09T01:59:03;100162.31;;;17.67;93.95
37610;BME280;23457;51.966;8.230;2022-09-09T02:02:28;100164.03;;;17.68;93.62
37610;BME280;23457;51.966;8.230;2022-09-09T02:04:43;100160.56;;;17.66;93.28
37610;BME280;23457;51.966;8.230;2022-09-09T02:10:08;100153.59;;;17.65;93.49
37610;BME280;23457;51.966;8.230;2022-09-09T02:12:41;100149.25;;;17.61;93.86
37610;BME280;23457;51.966;8.230;2022-09-09T02:18:07;100156.97;;;17.71;93.95
37610;BME280;23457;51.966;8.230;2022-09-09T02:20:39;100156.84;;;17.76;93.18
37610;BME280;23457;51.966;8.230;2022-09-09T02:23:09;100162.22;;;17.71;93.92
37610;BME280;23457;51.966;8.230;2022-09-09T02:25:37;100155.97;;;17.75;93.64
37610;BME280;23457;51.966;8.230;2022-09-09T02:28:08;100161.94;;;17.83;93.54
37610;BME280;23457;51.966;8.230;2022-09-09T02:30:36;100157.63;;;17.81;93.28
37610;BME280;23457;51.966;8.230;2022-09-09T02:33:06;100163.72;;;17.83;93.25
37610;BME280;23457;51.966;8.230;2022-09-09T02:35:37;100158.47;;;17.81;92.99
37610;BME280;23457;51.966;8.230;2022-09-09T02:38:08;100155.78;;;17.84;92.32
37610;BME280;23457;51.966;8.230;2022-09-09T02:40:35;100173.16;;;17.90;92.42
37610;BME280;23457;51.966;8.230;2022-09-09T02:43:02;100160.88;;;17.92;92.27
37610;BME280;23457;51.966;8.230;2022-09-09T02:45:36;100157.41;;;17.90;93.41
37610;BME280;23457;51.966;8.230;2022-09-09T02:48:14;100149.50;;;17.90;93.51
37610;BME280;23457;51.966;8.230;2022-09-09T02:53:24;100154.09;;;17.82;92.95
37610;BME280;23457;51.966;8.230;2022-09-09T02:56:00;100154.19;;;17.77;93.93
37610;BME280;23457;51.966;8.230;2022-09-09T02:58:30;100160.38;;;17.73;94.51
37610;BME280;23457;51.966;8.230;2022-09-09T03:00:57;100156.13;;;17.69;94.38
37610;BME280;23457;51.966;8.230;2022-09-09T03:03:24;100161.16;;;17.78;94.20
37610;BME280;23457;51.966;8.230;2022-09-09T03:05:51;100159.38;;;17.80;93.89
37610;BME280;23457;51.966;8.230;2022-09-09T03:08:17;100160.34;;;17.76;93.62
37610;BME280;23457;51.966;8.230;2022-09-09T03:10:44;100167.34;;;17.76;94.32
37610;BME280;23457;51.966;8.230;2022-09-09T03:13:11;100174.50;;;17.71;94.64
37610;BME280;23457;51.966;8.230;2022-09-09T03:15:39;100173.63;;;17.70;93.85
37610;BME280;23457;51.966;8.230;2022-09-09T03:18:05;100159.66;;;17.68;93.50
37610;BME280;23457;51.966;8.230;2022-09-09T03:20:32;100165.81;;;17.66;95.02
37610;BME280;23457;51.966;8.230;2022-09-09T03:22:59;100161.19;;;17.77;94.31
37610;BME280;23457;51.966;8.230;2022-09-09T03:25:26;100160.69;;;17.60;94.86
37610;BME280;23457;51.966;8.230;2022-09-09T03:27:55;100166.72;;;17.65;95.44
37610;BME280;23457;51.966;8.230;2022-09-09T03:30:23;100164.09;;;17.65;95.87
37610;BME280;23457;51.966;8.230;2022-09-09T03:32:50;100161.69;;;17.52;94.80
37610;BME280;23457;51.966;8.230;2022-09-09T03:35:17;100164.13;;;17.62;95.02
37610;BME280;23457;51.966;8.230;2022-09-09T03:37:43;100165.06;;;17.59;97.17
37610;BME280;23457;51.966;8.230;2022-09-09T03:40:10;100158.97;;;17.57;95.83
37610;BME280;23457;51.966;8.230;2022-09-09T03:42:38;100167.72;;;17.58;96.73
37610;BME280;23457;51.966;8.230;2022-09-09T03:45:07;100157.22;;;17.58;96.26
37610;BME280;23457;51.966;8.230;2022-09-09T03:47:35;100164.09;;;17.65;96.55
37610;BME280;23457;51.966;8.230;2022-09-09T03:50:01;100165.75;;;17.70;95.73
37610;BME280;23457;51.966;8.230;2022-09-09T03:52:28;100157.00;;;17.70;95.29
37610;BME280;23457;51.966;8.230;2022-09-09T03:54:55;100157.84;;;17.70;95.70
37610;BME280;23457;51.966;8.230;2022-09-09T03:57:23;100149.22;;;17.62;95.11
37610;BME280;23457;51.966;8.230;2022-09-09T03:59:49;100154.03;;;17.42;96.14
37610;BME280;23457;51.966;8.230;2022-09-09T04:02:15;100146.84;;;17.50;96.11
37610;BME280;23457;51.966;8.230;2022-09-09T04:04:42;100155.53;;;17.55;96.07
37610;BME280;23457;51.966;8.230;2022-09-09T04:07:08;100157.22;;;17.58;95.73
37610;BME280;23457;51.966;8.230;2022-09-09T04:09:35;100155.50;;;17.57;95.82
37610;BME280;23457;51.966;8.230;2022-09-09T04:12:02;100162.31;;;17.67;95.79
37610;BME280;23457;51.966;8.230;2022-09-09T04:14:28;100155.25;;;17.69;95.31
37610;BME280;23457;51.966;8.230;2022-09-09T04:16:55;100163.88;;;17.74;95.54
37610;BME280;23457;51.966;8.230;2022-09-09T04:19:24;100159.59;;;17.71;95.59
37610;BME280;23457;51.966;8.230;2022-09-09T04:21:51;100158.56;;;17.77;95.34
37610;BME280;23457;51.966;8.230;2022-09-09T04:24:18;100160.59;;;17.63;95.55
37610;BME280;23457;51.966;8.230;2022-09-09T04:26:45;100156.06;;;17.72;95.42
37610;BME280;23457;51.966;8.230;2022-09-09T04:29:11;100164.72;;;17.76;95.36
37610;BME280;23457;51.966;8.230;2022-09-09T04:31:38;100162.19;;;17.73;95.37
37610;BME280;23457;51.966;8.230;2022-09-09T04:34:11;100154.97;;;17.81;94.40
37610;BME280;23457;51.966;8.230;2022-09-09T04:36:37;100160.38;;;17.73;94.84
37610;BME280;23457;51.966;8.230;2022-09-09T04:39:05;100151.75;;;17.68;95.26
37610;BME280;23457;51.966;8.230;2022-09-09T04:41:32;100155.81;;;17.83;94.66
37610;BME280;23457;51.966;8.230;2022-09-09T04:43:58;100165.41;;;17.85;94.20
37610;BME280;23457;51.966;8.230;2022-09-09T04:46:27;100155.13;;;17.73;95.08
37610;BME280;23457;51.966;8.230;2022-09-09T04:48:53;100169.16;;;17.74;94.75
37610;BME280;23457;51.966;8.230;2022-09-09T04:51:20;100172.56;;;17.79;94.74
37610;BME280;23457;51.966;8.230;2022-09-09T04:53:47;100168.75;;;17.92;94.34
37610;BME280;23457;51.966;8.230;2022-09-09T04:56:15;100166.63;;;17.69;95.35
37610;BME280;23457;51.966;8.230;2022-09-09T04:58:42;100164.03;;;17.68;95.33
37610;BME280;23457;51.966;8.230;2022-09-09T05:01:18;100167.03;;;17.91;94.28
37610;BME280;23457;51.966;8.230;2022-09-09T05:03:46;100176.63;;;17.92;93.64
37610;BME280;23457;51.966;8.230;2022-09-09T05:06:22;100171.38;;;17.92;94.15
37610;BME280;23457;51.966;8.230;2022-09-09T05:08:49;100169.53;;;17.97;93.93
37610;BME280;23457;51.966;8.230;2022-09-09T05:11:21;100176.63;;;17.92;94.18
37610;BME280;23457;51.966;8.230;2022-09-09T05:13:50;100170.19;;;18.05;93.31
37610;BME280;23457;51.966;8.230;2022-09-09T05:16:17;100170.31;;;17.99;93.91
37610;BME280;23457;51.966;8.230;2022-09-09T05:18:44;100168.63;;;17.98;93.86
37610;BME280;23457;51.966;8.230;2022-09-09T05:21:11;100175.53;;;18.02;93.49
37610;BME280;23457;51.966;8.230;2022-09-09T05:23:38;100177.25;;;18.03;93.79
37610;BME280;23457;51.966;8.230;2022-09-09T05:26:06;100175.47;;;18.05;93.48
37610;BME280;23457;51.966;8.230;2022-09-09T05:28:34;100171.00;;;18.09;93.04
37610;BME280;23457;51.966;8.230;2022-09-09T05:31:07;100181.41;;;18.12;93.39
37610;BME280;23457;51.966;8.230;2022-09-09T05:33:40;100176.81;;;18.23;92.51
37610;BME280;23457;51.966;8.230;2022-09-09T05:36:12;100182.75;;;18.31;92.40
37610;BME280;23457;51.966;8.230;2022-09-09T05:38:41;100180.91;;;18.35;91.63
37610;BME280;23457;51.966;8.230;2022-09-09T05:41:09;100177.47;;;18.31;92.01
37610;BME280;23457;51.966;8.230;2022-09-09T05:43:38;100173.38;;;18.19;92.71
37610;BME280;23457;51.966;8.230;2022-09-09T05:46:06;100184.63;;;18.24;92.84
37610;BME280;23457;51.966;8.230;2022-09-09T05:48:35;100179.13;;;18.35;91.76
37610;BME280;23457;51.966;8.230;2022-09-09T05:51:04;100182.72;;;18.33;91.70
37610;BME280;23457;51.966;8.230;2022-09-09T05:53:30;100181.81;;;18.34;91.95
37610;BME280;23457;51.966;8.230;2022-09-09T05:56:08;100179.00;;;18.40;91.36
37610;BME280;23457;51.966;8.230;2022-09-09T05:58:38;100180.91;;;18.35;92.30
37610;BME280;23457;51.966;8.230;2022-09-09T06:01:10;100186.91;;;18.40;92.09
37610;BME280;23457;51.966;8.230;2022-09-09T06:03:39;100185.06;;;18.43;91.70
37610;BME280;23457;51.966;8.230;2022-09-09T06:06:08;100175.53;;;18.38;90.81
37610;BME280;23457;51.966;8.230;2022-09-09T06:08:37;100189.50;;;18.41;91.25
37610;BME280;23457;51.966;8.230;2022-09-09T06:11:05;100183.38;;;18.41;92.04
37610;BME280;23457;51.966;8.230;2022-09-09T06:13:32;100175.47;;;18.41;91.67
37610;BME280;23457;51.966;8.230;2022-09-09T06:15:59;100186.69;;;18.49;91.24
37610;BME280;23457;51.966;8.230;2022-09-09T06:18:26;100182.44;;;18.43;92.39
37610;BME280;23457;51.966;8.230;2022-09-09T06:21:04;100185.16;;;18.39;92.08
37610;BME280;23457;51.966;8.230;2022-09-09T06:23:31;100187.19;;;18.27;92.80
37610;BME280;23457;51.966;8.230;2022-09-09T06:26:16;100186.59;;;18.52;91.05
37610;BME280;23457;51.966;8.230;2022-09-09T06:28:47;100177.81;;;18.53;91.54
37610;BME280;23457;51.966;8.230;2022-09-09T06:31:15;100174.28;;;18.54;90.47
37610;BME280;23457;51.966;8.230;2022-09-09T06:33:43;100181.25;;;18.55;90.16
37610;BME280;23457;51.966;8.230;2022-09-09T06:36:16;100176.84;;;18.58;91.00
37610;BME280;23457;51.966;8.230;2022-09-09T06:38:44;100179.44;;;18.60;90.83
37610;BME280;23457;51.966;8.230;2022-09-09T06:41:13;100178.25;;;18.72;90.60
37610;BME280;23457;51.966;8.230;2022-09-09T06:43:41;100186.91;;;18.75;90.82
37610;BME280;23457;51.966;8.230;2022-09-09T06:48:39;100177.13;;;18.80;89.74
37610;BME280;23457;51.966;8.230;2022-09-09T06:53:43;100189.06;;;18.93;89.65
37610;BME280;23457;51.966;8.230;2022-09-09T06:58:43;100185.69;;;18.88;90.56
37610;BME280;23457;51.966;8.230;2022-09-09T07:01:15;100194.09;;;19.03;89.63
37610;BME280;23457;51.966;8.230;2022-09-09T07:03:45;100199.34;;;19.03;88.84
37610;BME280;23457;51.966;8.230;2022-09-09T07:06:15;100201.91;;;19.06;89.94
37610;BME280;23457;51.966;8.230;2022-09-09T07:08:49;100201.63;;;19.16;89.82
37610;BME280;23457;51.966;8.230;2022-09-09T07:11:24;100195.16;;;19.28;89.01
37610;BME280;23457;51.966;8.230;2022-09-09T07:13:52;100198.53;;;19.33;87.90
37610;BME280;23457;51.966;8.230;2022-09-09T07:16:20;100205.31;;;19.42;88.09
37610;BME280;23457;51.966;8.230;2022-09-09T07:18:47;100186.69;;;19.48;86.86
37610;BME280;23457;51.966;8.230;2022-09-09T07:21:14;100194.91;;;19.37;87.63
37610;BME280;23457;51.966;8.230;2022-09-09T07:23:41;100199.25;;;19.38;89.59
37610;BME280;23457;51.966;8.230;2022-09-09T07:26:13;100206.00;;;19.48;86.56
37610;BME280;23457;51.966;8.230;2022-09-09T07:28:41;100202.09;;;19.63;87.34
37610;BME280;23457;51.966;8.230;2022-09-09T07:31:13;100190.03;;;19.54;86.90
37610;BME280;23457;51.966;8.230;2022-09-09T07:33:43;100190.78;;;19.59;86.84
37610;BME280;23457;51.966;8.230;2022-09-09T07:36:14;100196.84;;;19.63;85.91
37610;BME280;23457;51.966;8.230;2022-09-09T07:38:42;100199.25;;;19.71;86.72
37610;BME280;23457;51.966;8.230;2022-09-09T07:41:29;100204.66;;;19.64;86.28
37610;BME280;23457;51.966;8.230;2022-09-09T07:43:56;100202.88;;;19.66;86.30
37610;BME280;23457;51.966;8.230;2022-09-09T07:46:24;100196.47;;;19.75;85.40
37610;BME280;23457;51.966;8.230;2022-09-09T07:48:56;100198.78;;;19.86;85.27
37610;BME280;23457;51.966;8.230;2022-09-09T07:51:28;100206.53;;;19.90;84.85
37610;BME280;23457;51.966;8.230;2022-09-09T07:53:58;100211.06;;;19.87;84.43
37610;BME280;23457;51.966;8.230;2022-09-09T07:56:26;100207.16;;;20.00;84.72
37610;BME280;23457;51.966;8.230;2022-09-09T07:58:54;100200.69;;;19.81;85.59
37610;BME280;23457;51.966;8.230;2022-09-09T08:03:59;100211.78;;;19.92;85.43
37610;BME280;23457;51.966;8.230;2022-09-09T08:06:29;100204.69;;;19.94;85.26
37610;BME280;23457;51.966;8.230;2022-09-09T08:08:55;100198.97;;;19.80;84.74
37610;BME280;23457;51.966;8.230;2022-09-09T08:11:26;100188.69;;;20.00;83.60
37610;BME280;23457;51.966;8.230;2022-09-09T08:13:54;100195.22;;;20.44;81.63
37610;BME280;23457;51.966;8.230;2022-09-09T08:16:33;100195.41;;;20.10;82.45
37610;BME280;23457;51.966;8.230;2022-09-09T08:19:00;100203.63;;;20.27;81.08
37610;BME280;23457;51.966;8.230;2022-09-09T08:21:28;100205.75;;;20.16;81.26
37610;BME280;23457;51.966;8.230;2022-09-09T08:23:56;100216.47;;;20.12;82.63
37610;BME280;23457;51.966;8.230;2022-09-09T08:26:29;100200.84;;;20.32;82.19
37610;BME280;23457;51.966;8.230;2022-09-09T08:28:58;100211.41;;;20.32;82.21
37610;BME280;23457;51.966;8.230;2022-09-09T08:31:40;100207.81;;;20.34;82.27
37610;BME280;23457;51.966;8.230;2022-09-09T08:34:07;100215.41;;;20.45;81.05
37610;BME280;23457;51.966;8.230;2022-09-09T08:36:40;100213.06;;;20.36;81.98
37610;BME280;23457;51.966;8.230;2022-09-09T08:39:10;100218.09;;;20.44;82.03
37610;BME280;23457;51.966;8.230;2022-09-09T08:55:20;100232.28;;;20.39;79.44
37610;BME280;23457;51.966;8.230;2022-09-09T08:57:53;100230.81;;;20.29;79.14
37610;BME280;23457;51.966;8.230;2022-09-09T09:00:21;100237.41;;;20.16;81.41
37610;BME280;23457;51.966;8.230;2022-09-09T09:03:01;100238.13;;;20.21;79.05
37610;BME280;23457;51.966;8.230;2022-09-09T09:05:39;100231.19;;;20.47;77.42
37610;BME280;23457;51.966;8.230;2022-09-09T09:11:00;100231.78;;;19.99;82.12
37610;BME280;23457;51.966;8.230;2022-09-09T09:13:40;100229.22;;;20.25;81.52
37610;BME280;23457;51.966;8.230;2022-09-09T09:18:59;100223.66;;;20.34;78.72
37610;BME280;23457;51.966;8.230;2022-09-09T09:21:51;100231.28;;;20.44;78.04
37610;BME280;23457;51.966;8.230;2022-09-09T09:24:23;100222.13;;;20.55;76.61
37610;BME280;23457;51.966;8.230;2022-09-09T09:26:55;100226.44;;;20.58;76.27
37610;BME280;23457;51.966;8.230;2022-09-09T09:29:23;100231.97;;;20.50;76.96
37610;BME280;23457;51.966;8.230;2022-09-09T09:32:01;100224.59;;;20.86;76.77
37610;BME280;23457;51.966;8.230;2022-09-09T09:34:28;100214.47;;;21.25;75.29
37610;BME280;23457;51.966;8.230;2022-09-09T09:36:59;100225.41;;;21.39;73.63
37610;BME280;23457;51.966;8.230;2022-09-09T09:39:33;100222.38;;;21.50;74.48
37610;BME280;23457;51.966;8.230;2022-09-09T09:42:24;100209.03;;;21.53;72.95
37610;BME280;23457;51.966;8.230;2022-09-09T09:44:51;100222.66;;;20.91;72.77
37610;BME280;23457;51.966;8.230;2022-09-09T09:47:20;100217.09;;;21.00;74.52
37610;BME280;23457;51.966;8.230;2022-09-09T09:49:56;100219.09;;;20.92;73.17
37610;BME280;23457;51.966;8.230;2022-09-09T09:52:28;100202.66;;;20.84;74.22
37610;BME280;23457;51.966;8.230;2022-09-09T09:54:56;100212.91;;;20.93;72.83
37610;BME280;23457;51.966;8.230;2022-09-09T09:57:26;100209.69;;;21.10;71.02
37610;BME280;23457;51.966;8.230;2022-09-09T10:00:15;100215.16;;;21.30;70.97
37610;BME280;23457;51.966;8.230;2022-09-09T10:02:45;100213.16;;;21.37;71.84
37610;BME280;23457;51.966;8.230;2022-09-09T10:05:21;100213.63;;;21.48;70.52
37610;BME280;23457;51.966;8.230;2022-09-09T10:08:10;100219.13;;;21.42;68.74
37610;BME280;23457;51.966;8.230;2022-09-09T10:13:26;100231.44;;;21.43;70.81
37610;BME280;23457;51.966;8.230;2022-09-09T10:19:05;100221.91;;;21.86;69.67
37610;BME280;23457;51.966;8.230;2022-09-09T10:24:37;100221.25;;;21.32;69.33
37610;BME280;23457;51.966;8.230;2022-09-09T10:27:23;100218.72;;;21.77;69.11
37610;BME280;23457;51.966;8.230;2022-09-09T10:30:17;100212.19;;;21.86;68.59
37610;BME280;23457;51.966;8.230;2022-09-09T10:33:04;100217.56;;;22.08;69.63
37610;BME280;23457;51.966;8.230;2022-09-09T10:35:58;100215.72;;;22.32;65.29
37610;BME280;23457;51.966;8.230;2022-09-09T10:38:43;100215.44;;;22.39;65.03
37610;BME280;23457;51.966;8.230;2022-09-09T10:47:04;100217.94;;;22.42;64.11
37610;BME280;23457;51.966;8.230;2022-09-09T10:57:41;100198.91;;;22.76;62.45
37610;BME280;23457;51.966;8.230;2022-09-09T11:00:22;100204.81;;;23.03;62.71
37610;BME280;23457;51.966;8.230;2022-09-09T11:03:01;100210.44;;;23.16;64.16
37610;BME280;23457;51.966;8.230;2022-09-09T11:08:21;100197.09;;;23.38;62.85
37610;BME280;23457;51.966;8.230;2022-09-09T11:11:07;100196.38;;;23.34;58.08
37610;BME280;23457;51.966;8.230;2022-09-09T11:19:25;100193.53;;;23.18;60.26
37610;BME280;23457;51.966;8.230;2022-09-09T11:21:53;100199.81;;;22.75;60.17
37610;BME280;23457;51.966;8.230;2022-09-09T11:24:42;100192.16;;;22.90;59.57
37610;BME280;23457;51.966;8.230;2022-09-09T11:27:16;100182.50;;;22.67;61.10
37610;BME280;23457;51.966;8.230;2022-09-09T11:32:55;100187.66;;;22.70;61.16
37610;BME280;23457;51.966;8.230;2022-09-09T11:38:45;100188.63;;;22.47;63.29
37610;BME280;23457;51.966;8.230;2022-09-09T11:41:19;100187.25;;;22.59;63.58
37610;BME280;23457;51.966;8.230;2022-09-09T11:43:56;100183.09;;;22.31;61.09
37610;BME280;23457;51.966;8.230;2022-09-09T11:46:36;100186.94;;;22.44;58.96
37610;BME280;23457;51.966;8.230;2022-09-09T11:49:06;100170.78;;;22.52;61.66
37610;BME280;23457;51.966;8.230;2022-09-09T11:51:49;100183.88;;;22.77;60.71
37610;BME280;23457;51.966;8.230;2022-09-09T11:54:33;100178.94;;;22.46;59.07
37610;BME280;23457;51.966;8.230;2022-09-09T11:57:37;100168.19;;;22.07;61.58
37610;BME280;23457;51.966;8.230;2022-09-09T12:00:05;100184.28;;;22.24;62.16
37610;BME280;23457;51.966;8.230;2022-09-09T12:02:32;100187.22;;;22.38;62.64
37610;BME280;23457;51.966;8.230;2022-09-09T12:10:24;100183.75;;;23.00;58.33
37610;BME280;23457;51.966;8.230;2022-09-09T12:12:53;100180.84;;;23.45;59.82
37610;BME280;23457;51.966;8.230;2022-09-09T12:15:25;100184.69;;;23.77;59.37
37610;BME280;23457;51.966;8.230;2022-09-09T12:17:58;100177.19;;;23.48;56.59
37610;BME280;23457;51.966;8.230;2022-09-09T12:20:39;100172.28;;;23.59;59.21
37610;BME280;23457;51.966;8.230;2022-09-09T12:28:18;100175.69;;;24.36;52.59
37610;BME280;23457;51.966;8.230;2022-09-09T12:33:48;100177.50;;;24.17;51.54
37610;BME280;23457;51.966;8.230;2022-09-09T12:36:17;100161.38;;;24.03;51.59
37610;BME280;23457;51.966;8.230;2022-09-09T12:38:46;100167.00;;;23.78;50.70
37610;BME280;23457;51.966;8.230;2022-09-09T12:41:21;100151.75;;;24.00;51.64
37610;BME280;23457;51.966;8.230;2022-09-09T12:43:49;100162.38;;;24.19;52.04
37610;BME280;23457;51.966;8.230;2022-09-09T12:46:39;100166.66;;;24.40;52.70
37610;BME280;23457;51.966;8.230;2022-09-09T12:51:55;100167.56;;;23.66;51.09
37610;BME280;23457;51.966;8.230;2022-09-09T12:54:24;100172.59;;;23.90;53.40
37610;BME280;23457;51.966;8.230;2022-09-09T12:56:50;100170.00;;;23.89;51.78
37610;BME280;23457;51.966;8.230;2022-09-09T12:59:26;100162.59;;;23.96;50.90
37610;BME280;23457;51.966;8.230;2022-09-09T13:01:57;100172.88;;;24.39;54.00
37610;BME280;23457;51.966;8.230;2022-09-09T13:04:24;100161.59;;;24.53;49.45
37610;BME280;23457;51.966;8.230;2022-09-09T13:06:51;100159.09;;;24.67;51.89
37610;BME280;23457;51.966;8.230;2022-09-09T13:09:19;100163.00;;;25.12;48.95
37610;BME280;23457;51.966;8.230;2022-09-09T13:11:50;100154.38;;;24.89;49.69
37610;BME280;23457;51.966;8.230;2022-09-09T13:14:27;100148.38;;;24.86;51.03
37610;BME280;23457;51.966;8.230;2022-09-09T13:16:59;100153.50;;;25.23;51.78
37610;BME280;23457;51.966;8.230;2022-09-09T13:19:29;100147.50;;;25.20;51.48
37610;BME280;23457;51.966;8.230;2022-09-09T13:21:58;100158.56;;;24.95;49.58
37610;BME280;23457;51.966;8.230;2022-09-09T13:24:31;100153.16;;;24.79;50.96
37610;BME280;23457;51.966;8.230;2022-09-09T13:27:00;100150.78;;;24.73;49.58
37610;BME280;23457;51.966;8.230;2022-09-09T13:29:32;100142.66;;;24.59;50.51
37610;BME280;23457;51.966;8.230;2022-09-09T13:32:07;100151.19;;;24.66;49.07
37610;BME280;23457;51.966;8.230;2022-09-09T13:34:39;100144.47;;;24.76;49.39
37610;BME280;23457;51.966;8.230;2022-09-09T13:37:26;100131.03;;;24.79;50.44
37610;BME280;23457;51.966;8.230;2022-09-09T13:39:55;100136.13;;;25.01;48.97
37610;BME280;23457;51.966;8.230;2022-09-09T13:42:27;100138.63;;;25.04;49.25
37610;BME280;23457;51.966;8.230;2022-09-09T13:44:56;100129.84;;;25.19;50.01
37610;BME280;23457;51.966;8.230;2022-09-09T13:47:33;100135.88;;;25.38;49.62
37610;BME280;23457;51.966;8.230;2022-09-09T13:50:25;100134.50;;;25.31;49.33
37610;BME280;23457;51.966;8.230;2022-09-09T13:52:53;100121.28;;;25.29;49.10
37610;BME280;23457;51.966;8.230;2022-09-09T13:55:22;100140.25;;;24.72;50.19
37610;BME280;23457;51.966;8.230;2022-09-09T14:00:18;100124.78;;;24.28;50.70
37610;BME280;23457;51.966;8.230;2022-09-09T14:02:45;100131.22;;;24.22;50.38
37610;BME280;23457;51.966;8.230;2022-09-09T14:05:12;100141.88;;;23.85;50.77
37610;BME280;23457;51.966;8.230;2022-09-09T14:07:39;100134.66;;;23.31;51.75
37610;BME280;23457;51.966;8.230;2022-09-09T14:10:07;100134.25;;;23.40;50.73
37610;BME280;23457;51.966;8.230;2022-09-09T14:12:34;100147.28;;;23.44;52.13
37610;BME280;23457;51.966;8.230;2022-09-09T14:15:00;100137.53;;;23.26;53.42
37610;BME280;23457;51.966;8.230;2022-09-09T14:17:27;100141.13;;;23.25;53.23
37610;BME280;23457;51.966;8.230;2022-09-09T14:19:57;100144.88;;;23.19;52.73
37610;BME280;23457;51.966;8.230;2022-09-09T14:22:24;100149.56;;;23.14;51.47
37610;BME280;23457;51.966;8.230;2022-09-09T14:24:51;100150.34;;;22.96;53.06
37610;BME280;23457;51.966;8.230;2022-09-09T14:27:19;100152.34;;;22.91;54.03
37610;BME280;23457;51.966;8.230;2022-09-09T14:29:46;100160.38;;;22.90;54.01
37610;BME280;23457;51.966;8.230;2022-09-09T14:32:12;100166.72;;;22.85;55.96
37610;BME280;23457;51.966;8.230;2022-09-09T14:34:39;100162.72;;;22.96;57.38
37610;BME280;23457;51.966;8.230;2022-09-09T14:37:06;100162.81;;;23.14;57.17
37610;BME280;23457;51.966;8.230;2022-09-09T14:39:33;100162.88;;;23.32;56.26
37610;BME280;23457;51.966;8.230;2022-09-09T14:41:59;100159.88;;;23.20;58.09
37610;BME280;23457;51.966;8.230;2022-09-09T14:44:27;100159.47;;;23.09;58.01
37610;BME280;23457;51.966;8.230;2022-09-09T14:46:54;100157.44;;;23.16;57.40
37610;BME280;23457;51.966;8.230;2022-09-09T14:49:20;100139.69;;;22.98;55.78
37610;BME280;23457;51.966;8.230;2022-09-09T14:51:47;100140.16;;;22.87;57.04
37610;BME280;23457;51.966;8.230;2022-09-09T14:54:13;100160.44;;;22.88;55.71
37610;BME280;23457;51.966;8.230;2022-09-09T14:56:40;100152.94;;;22.77;55.96
37610;BME280;23457;51.966;8.230;2022-09-09T14:59:07;100154.59;;;23.00;55.13
37610;BME280;23457;51.966;8.230;2022-09-09T15:01:34;100150.09;;;23.02;57.69
37610;BME280;23457;51.966;8.230;2022-09-09T15:04:03;100152.06;;;22.97;57.07
37610;BME280;23457;51.966;8.230;2022-09-09T15:06:30;100157.06;;;22.63;57.54
37610;BME280;23457;51.966;8.230;2022-09-09T15:08:59;100145.66;;;22.82;56.79
37610;BME280;23457;51.966;8.230;2022-09-09T15:11:28;100153.34;;;22.89;56.32